»·PEaware :: N7DJ KSMF-KONT

N7DJ :: KSMF-KONT

FLIGHT INFORMATION

Flight Status: Arrived
Operator: Privately registered:
United States
More flights under this callsign
Pilot: Don J. (45483)
Aircraft: CANADAIR CL-600 CHALLENGER
(CL60)
More flights by this aircraft type
Origin: KSMF Sacramento Intl
United States
Destination: KONT Ontario Intl
United States
More flights between these airports :: More routes between these airports
Route: FTHIL3 FRA TTE ZIGGY7
File this flight plan on PilotEdge
Remarks: RMK / SIMBRIEF
Altitude:
(Current/Filed)
39,000ft
Speed:
(Current/Filed)
463kts
Departed: 08-Nov-23 11:34 AM
Arrived: 08-Nov-23 12:45 PM
Distance/Time
Traveled:
338nm/1:11
Distance/Time
To Go:
Arrived

Flight Plot

Page will automatically refresh every two minutes.

Flight plan parsing failed; only flown route is shown


Map Options




Map Legend


Flown Route
Filed Route
Departure Airport
Arrival Airport
Navaid (VOR, NDB)
Fix

Horizontal Profiles

Position Reports

Time Latitude Longitude Heading Altitude Ground
Speed
08-Nov-23 10:56 38.681449 -121.597791 1 25ft 0kts
08-Nov-23 10:57 38.681449 -121.597791 1 25ft 0kts
08-Nov-23 10:58 38.681449 -121.597791 1 25ft 0kts
08-Nov-23 10:59 38.681449 -121.597791 1 25ft 0kts
08-Nov-23 11:00 38.681449 -121.597791 1 25ft 0kts
08-Nov-23 11:01 38.681449 -121.597791 1 25ft 0kts
08-Nov-23 11:02 38.681449 -121.597791 1 25ft 0kts
08-Nov-23 11:03 38.681449 -121.597791 1 25ft 0kts
08-Nov-23 11:04 38.681449 -121.597791 1 25ft 0kts
08-Nov-23 11:05 38.681449 -121.597791 1 25ft 0kts
08-Nov-23 11:06 38.681449 -121.597791 1 25ft 0kts
08-Nov-23 11:07 38.681449 -121.597791 1 25ft 0kts
08-Nov-23 11:08 38.681449 -121.597791 1 25ft 0kts
08-Nov-23 11:09 38.681449 -121.597791 1 25ft 0kts
08-Nov-23 11:10 38.681449 -121.597791 1 25ft 0kts
08-Nov-23 11:11 38.681449 -121.597791 1 25ft 0kts
08-Nov-23 11:12 38.681449 -121.597791 1 25ft 0kts
08-Nov-23 11:13 38.681449 -121.597791 1 25ft 0kts
08-Nov-23 11:14 38.681449 -121.597791 1 25ft 0kts
08-Nov-23 11:15 38.681449 -121.597791 1 25ft 0kts
08-Nov-23 11:16 38.681449 -121.597791 1 25ft 0kts
08-Nov-23 11:17 38.681449 -121.597791 1 25ft 0kts
08-Nov-23 11:18 38.681449 -121.597791 1 25ft 0kts
08-Nov-23 11:19 38.681449 -121.597791 1 25ft 0kts
08-Nov-23 11:20 38.681449 -121.597791 1 25ft 0kts
08-Nov-23 11:21 38.681449 -121.597791 1 25ft 0kts
08-Nov-23 11:22 38.681449 -121.597791 1 25ft 0kts
08-Nov-23 11:23 38.681449 -121.597791 1 25ft 0kts
08-Nov-23 11:24 38.681449 -121.597791 0 25ft 0kts
08-Nov-23 11:25 38.681449 -121.597791 1 25ft 0kts
08-Nov-23 11:26 38.681449 -121.597791 1 25ft 0kts
08-Nov-23 11:27 38.681449 -121.597791 1 25ft 0kts
08-Nov-23 11:28 38.681496 -121.597803 338 25ft 3kts
08-Nov-23 11:29 38.683008 -121.598857 0 27ft 10kts
08-Nov-23 11:30 38.683825 -121.600081 272 29ft 0kts
08-Nov-23 11:31 38.683825 -121.600081 272 29ft 0kts
08-Nov-23 11:32 38.683871 -121.600973 274 30ft 7kts
08-Nov-23 11:33 38.702297 -121.601335 359 593ft 167kts
08-Nov-23 11:34 38.716156 -121.550721 125 4139ft 220kts
08-Nov-23 11:35 38.678443 -121.488713 124 7359ft 238kts
08-Nov-23 11:36 38.635378 -121.414569 123 11526ft 288kts
08-Nov-23 11:37 38.584382 -121.325905 123 13532ft 332kts
08-Nov-23 11:38 38.528745 -121.229143 123 15536ft 346kts
08-Nov-23 11:39 38.470318 -121.127654 124 17539ft 363kts
08-Nov-23 11:40 38.408849 -121.021097 125 19539ft 381kts
08-Nov-23 11:41 38.344666 -120.910097 125 21578ft 396kts
08-Nov-23 11:42 38.277646 -120.794592 125 23598ft 412kts
08-Nov-23 11:43 38.207847 -120.674710 126 25521ft 429kts
08-Nov-23 11:44 38.135655 -120.551175 126 27392ft 446kts
08-Nov-23 11:45 38.060467 -120.422796 125 29036ft 469kts
08-Nov-23 11:46 37.984431 -120.286202 125 30113ft 476kts
08-Nov-23 11:47 37.889234 -120.174303 152 31282ft 475kts
08-Nov-23 11:48 37.774586 -120.088758 153 32452ft 480kts
08-Nov-23 11:49 37.659111 -120.002933 153 33616ft 483kts
08-Nov-23 11:50 37.543823 -119.917549 153 34965ft 476kts
08-Nov-23 11:51 37.430582 -119.834017 155 36300ft 470kts
08-Nov-23 11:52 37.318382 -119.751487 155 37365ft 462kts
08-Nov-23 11:53 37.207997 -119.670608 156 38363ft 456kts
08-Nov-23 11:54 37.098267 -119.591925 163 39302ft 447kts
08-Nov-23 11:55 36.982730 -119.535316 166 39729ft 450kts
08-Nov-23 11:56 36.864715 -119.477878 166 39755ft 459kts
08-Nov-23 11:57 36.745186 -119.419932 166 39770ft 460kts
08-Nov-23 11:58 36.625489 -119.362052 166 39782ft 459kts
08-Nov-23 11:59 36.506559 -119.304508 167 39805ft 456kts
08-Nov-23 12:00 36.388894 -119.247861 167 39833ft 450kts
08-Nov-23 12:01 36.272073 -119.191700 167 39846ft 448kts
08-Nov-23 12:02 36.156131 -119.136355 167 39849ft 446kts
08-Nov-23 12:03 36.039980 -119.080956 168 39862ft 447kts
08-Nov-23 12:04 35.923460 -119.025589 168 39905ft 447kts
08-Nov-23 12:05 35.806099 -118.980262 172 39902ft 438kts
08-Nov-23 12:06 35.689142 -118.936688 172 39902ft 437kts
08-Nov-23 12:07 35.572670 -118.893359 172 39907ft 437kts
08-Nov-23 12:08 35.455849 -118.850048 172 39508ft 444kts
08-Nov-23 12:09 35.337817 -118.806338 172 37210ft 441kts
08-Nov-23 12:10 35.218456 -118.762339 171 35005ft 453kts
08-Nov-23 12:11 35.098661 -118.707780 157 32908ft 475kts
08-Nov-23 12:12 34.998307 -118.595691 134 30647ft 500kts
08-Nov-23 12:13 34.910777 -118.467937 133 28567ft 489kts
08-Nov-23 12:14 34.824944 -118.343303 133 26533ft 474kts
08-Nov-23 12:15 34.741946 -118.223022 133 24628ft 455kts
08-Nov-23 12:16 34.660468 -118.105448 133 24014ft 460kts
08-Nov-23 12:17 34.593873 -117.981595 121 21464ft 429kts
08-Nov-23 12:18 34.537746 -117.858562 121 19124ft 405kts
08-Nov-23 12:19 34.484633 -117.742644 120 16880ft 384kts
08-Nov-23 12:20 34.434135 -117.632892 119 14793ft 362kts
08-Nov-23 12:21 34.388810 -117.534651 118 14472ft 322kts
08-Nov-23 12:22 34.344701 -117.439472 118 13980ft 324kts
08-Nov-23 12:23 34.298069 -117.349605 140 12439ft 310kts
08-Nov-23 12:25 34.218451 -117.317916 165 11346ft 303kts
08-Nov-23 12:26 34.141166 -117.295125 172 10564ft 272kts
08-Nov-23 12:27 34.081988 -117.338243 250 9459ft 251kts
08-Nov-23 12:28 34.117197 -117.373034 40 9314ft 216kts
08-Nov-23 12:29 34.096045 -117.321306 187 9317ft 241kts
08-Nov-23 12:30 34.059635 -117.383136 251 9305ft 238kts
08-Nov-23 12:31 34.035848 -117.458524 251 8477ft 238kts
08-Nov-23 12:32 34.012893 -117.531765 251 7452ft 230kts
08-Nov-23 12:33 33.995753 -117.604901 271 6407ft 224kts
08-Nov-23 12:34 33.994473 -117.680126 270 6196ft 224kts
08-Nov-23 12:35 33.993261 -117.755602 271 6126ft 227kts
08-Nov-23 12:36 33.992129 -117.831681 271 5095ft 224kts
08-Nov-23 12:37 33.991719 -117.906780 279 4247ft 212kts
08-Nov-23 12:38 34.040012 -117.929697 1 4462ft 209kts
08-Nov-23 12:39 34.084007 -117.898823 83 4739ft 211kts
08-Nov-23 12:40 34.054315 -117.836303 98 3695ft 245kts
08-Nov-23 12:41 34.054689 -117.763878 87 3283ft 171kts
08-Nov-23 12:42 34.054837 -117.707270 88 2464ft 164kts
08-Nov-23 12:43 34.054867 -117.657748 85 1654ft 123kts
08-Nov-23 12:44 34.054927 -117.616970 84 1004ft 115kts
08-Nov-23 12:45 34.053987 -117.597948 181 925ft 7kts
08-Nov-23 12:46 34.053870 -117.605374 270 928ft 25kts
08-Nov-23 12:47 34.053650 -117.612705 212 931ft 15kts
08-Nov-23 12:48 34.051763 -117.611790 180 922ft 0kts
08-Nov-23 12:49 34.051763 -117.611790 180 922ft 0kts

Navigation Log

Ident Type
Flight plan parsing failed, navigation log unavailable